Time;durP1;ratioP1;P1;durP2;ratioP2;P2;SDS_P1;SDS_P2;PMS_P1;PMS_P2;Temp;Humidity;BMP_temperature;BMP_pressure;BME280_temperature;BME280_humidity;BME280_pressure;Samples;Min_cycle;Max_cycle;Signal;HPM_P1;HPM_P2
2023/05/19 00:00:43;;;;;;;;;;;;;;;11.03;72.56;96895.09;5050786;28;20233;-79
2023/05/19 00:03:11;;;;;;;;;;;;;;;11.00;73.28;96892.88;4983899;28;19951;-79
2023/05/19 00:05:39;;;;;;;;;;;;;;;10.97;72.78;96888.88;4983905;28;19957;-80
2023/05/19 00:08:08;;;;;;;;;;;;;;;10.95;73.37;96887.47;4982936;28;20231;-72
2023/05/19 00:10:34;;;;;;;;;;;;;;;10.94;73.28;96889.31;4983546;28;19977;-70
2023/05/19 00:13:00;;;;;;;;;;;;;;;10.92;72.95;96883.44;4983250;28;20032;-71
2023/05/19 00:15:26;;;;;;;;;;;;;;;10.91;73.84;96884.44;4983631;28;20256;-70
2023/05/19 00:17:54;;;;;;;;;;;;;;;10.91;73.07;96878.41;5050077;28;20246;-70
2023/05/19 00:20:20;;;;;;;;;;;;;;;10.89;73.07;96880.44;4983787;28;19958;-71
2023/05/19 00:22:46;;;;;;;;;;;;;;;10.88;73.81;96881.47;4983459;28;20243;-70
2023/05/19 00:25:12;;;;;;;;;;;;;;;10.88;73.19;96884.09;4983499;28;19956;-77
2023/05/19 00:27:38;;;;;;;;;;;;;;;10.85;72.83;96881.88;4983474;28;19957;-66
2023/05/19 00:30:04;;;;;;;;;;;;;;;10.82;75.26;96896.22;4983424;28;20263;-66
2023/05/19 00:32:30;;;;;;;;;;;;;;;10.81;74.59;96891.16;4983496;28;19966;-66
2023/05/19 00:34:55;;;;;;;;;;;;;;;10.82;75.11;96890.16;4982993;28;19960;-67
2023/05/19 00:37:22;;;;;;;;;;;;;;;10.80;74.81;96885.13;4983402;28;20240;-67
2023/05/19 00:39:48;;;;;;;;;;;;;;;10.78;74.19;96881.91;4983650;28;19956;-67
2023/05/19 00:42:14;;;;;;;;;;;;;;;10.76;74.20;96884.72;4982918;28;20121;-67
2023/05/19 00:44:40;;;;;;;;;;;;;;;10.74;74.54;96884.13;4983079;28;20031;-70
2023/05/19 00:47:09;;;;;;;;;;;;;;;10.70;74.53;96875.06;4983052;28;19953;-69
2023/05/19 00:49:35;;;;;;;;;;;;;;;10.67;75.69;96878.09;4982946;28;19975;-70
2023/05/19 00:52:01;;;;;;;;;;;;;;;10.63;74.40;96876.13;4983053;28;19961;-70
2023/05/19 00:54:27;;;;;;;;;;;;;;;10.59;75.29;96877.53;5049863;28;20029;-70
2023/05/19 00:56:57;;;;;;;;;;;;;;;10.54;76.57;96875.50;4983305;28;19953;-70
2023/05/19 00:59:23;;;;;;;;;;;;;;;10.52;76.20;96874.91;4983191;28;19956;-70
2023/05/19 01:01:48;;;;;;;;;;;;;;;10.49;76.61;96873.50;4983170;28;19979;-72
2023/05/19 01:04:18;;;;;;;;;;;;;;;10.46;77.06;96871.31;5049592;28;19962;-76
2023/05/19 01:06:56;;;;;;;;;;;;;;;10.43;76.82;96866.47;4982867;28;19952;-76
2023/05/19 01:09:22;;;;;;;;;;;;;;;10.41;77.21;96870.31;4982579;28;19969;-76
2023/05/19 01:11:49;;;;;;;;;;;;;;;10.34;75.28;96871.13;4982691;28;19957;-76
2023/05/19 01:14:15;;;;;;;;;;;;;;;10.30;76.68;96872.56;4982401;28;19958;-76
2023/05/19 01:16:57;;;;;;;;;;;;;;;10.29;75.99;96870.09;4982603;28;19967;-77
2023/05/19 01:19:36;;;;;;;;;;;;;;;10.28;75.42;96869.31;4982532;28;19963;-76
2023/05/19 01:22:11;;;;;;;;;;;;;;;10.27;76.32;96869.53;4982968;28;19958;-71
2023/05/19 01:24:40;;;;;;;;;;;;;;;10.24;76.05;96870.72;4982842;28;19953;-68
2023/05/19 01:27:06;;;;;;;;;;;;;;;10.24;75.77;96872.53;4982606;28;19962;-67
2023/05/19 01:29:38;;;;;;;;;;;;;;;10.21;75.43;96881.63;4982719;28;19961;-67
2023/05/19 01:32:05;;;;;;;;;;;;;;;10.19;74.75;96869.75;4982520;28;19957;-68
2023/05/19 01:34:32;;;;;;;;;;;;;;;10.16;75.22;96873.56;4982371;28;20236;-67
2023/05/19 01:36:59;;;;;;;;;;;;;;;10.13;75.22;96874.78;4982466;28;19955;-67
2023/05/19 01:39:26;;;;;;;;;;;;;;;10.11;75.32;96876.00;4982541;28;19955;-72
2023/05/19 01:41:53;;;;;;;;;;;;;;;10.07;76.01;96875.59;5049310;28;20158;-78
2023/05/19 01:44:21;;;;;;;;;;;;;;;10.05;76.54;96876.81;4982725;28;19958;-78
2023/05/19 01:46:46;;;;;;;;;;;;;;;10.01;76.07;96871.16;4982576;28;20151;-78
2023/05/19 01:49:12;;;;;;;;;;;;;;;9.96;77.20;96873.59;4982027;28;19951;-77
2023/05/19 01:51:39;;;;;;;;;;;;;;;9.93;78.06;96877.44;4982491;28;19959;-78
2023/05/19 01:54:04;;;;;;;;;;;;;;;9.92;78.23;96873.19;4982022;28;19963;-78
2023/05/19 01:56:51;;;;;;;;;;;;;;;9.91;78.12;96876.00;4982613;28;19956;-67
2023/05/19 01:59:40;;;;;;;;;;;;;;;9.89;76.88;96865.75;4982472;28;19984;-67
2023/05/19 02:02:13;;;;;;;;;;;;;;;9.89;78.71;96876.22;4982308;28;20217;-70
2023/05/19 02:04:50;;;;;;;;;;;;;;;9.88;78.18;96874.59;4982433;28;20150;-71
2023/05/19 02:07:34;;;;;;;;;;;;;;;9.87;77.00;96867.75;5048850;28;20107;-70
2023/05/19 02:10:02;;;;;;;;;;;;;;;9.83;77.71;96863.13;4982079;28;19974;-71
2023/05/19 02:12:33;;;;;;;;;;;;;;;9.81;78.08;96870.38;4981943;28;19960;-70
2023/05/19 02:15:08;;;;;;;;;;;;;;;9.79;77.94;96869.78;4981966;28;19981;-76
2023/05/19 02:17:37;;;;;;;;;;;;;;;9.77;78.07;96877.03;4981985;28;19979;-67
2023/05/19 02:20:03;;;;;;;;;;;;;;;9.75;78.59;96879.84;4982075;28;20155;-70
2023/05/19 02:22:30;;;;;;;;;;;;;;;9.74;78.14;96880.84;4981612;28;19964;-72
2023/05/19 02:24:56;;;;;;;;;;;;;;;9.71;77.78;96874.19;4982070;28;20272;-73
2023/05/19 02:27:25;;;;;;;;;;;;;;;9.68;78.77;96872.00;4982093;28;20026;-73
2023/05/19 02:29:51;;;;;;;;;;;;;;;9.64;77.64;96870.78;4981946;28;19970;-73
2023/05/19 02:32:17;;;;;;;;;;;;;;;9.63;78.96;96887.50;4983700;28;20276;-72
2023/05/19 02:34:44;;;;;;;;;;;;;;;9.60;78.38;96876.63;4985428;28;19962;-71
2023/05/19 02:37:13;;;;;;;;;;;;;;;9.59;78.61;96869.78;4984952;28;19961;-73
2023/05/19 02:39:42;;;;;;;;;;;;;;;9.58;79.18;96878.66;4984929;28;19963;-72
2023/05/19 02:42:09;;;;;;;;;;;;;;;9.57;79.25;96877.03;4985246;28;19958;-73
2023/05/19 02:44:35;;;;;;;;;;;;;;;9.54;78.17;96873.78;4985180;28;19966;-73
2023/05/19 02:47:01;;;;;;;;;;;;;;;9.51;77.00;96863.75;4985254;28;19957;-73
2023/05/19 02:49:29;;;;;;;;;;;;;;;9.48;79.69;96869.34;4985183;28;20029;-72
2023/05/19 02:51:55;;;;;;;;;;;;;;;9.45;79.00;96863.72;4984584;28;19956;-72
2023/05/19 02:54:21;;;;;;;;;;;;;;;9.43;79.75;96865.72;4985024;28;19961;-73
2023/05/19 02:56:47;;;;;;;;;;;;;;;9.40;78.17;96864.31;5051781;28;19953;-73
2023/05/19 02:59:13;;;;;;;;;;;;;;;9.38;80.40;96865.53;4984453;28;20314;-72
2023/05/19 03:01:39;;;;;;;;;;;;;;;9.37;79.19;96861.31;4985176;28;19960;-72
2023/05/19 03:04:05;;;;;;;;;;;;;;;9.34;81.50;96868.56;4984628;28;19950;-72
2023/05/19 03:06:31;;;;;;;;;;;;;;;9.30;79.22;96856.88;4985069;28;19959;-72
2023/05/19 03:08:57;;;;;;;;;;;;;;;9.29;81.30;96863.09;4985033;28;19951;-72
2023/05/19 03:11:23;;;;;;;;;;;;;;;9.30;80.10;96861.28;4984381;28;20256;-72
2023/05/19 03:13:49;;;;;;;;;;;;;;;9.30;80.51;96859.50;4984586;28;19954;-71
2023/05/19 03:16:15;;;;;;;;;;;;;;;9.30;82.40;96864.72;4984555;28;19955;-71
2023/05/19 03:18:41;;;;;;;;;;;;;;;9.31;82.77;96865.53;4984436;28;19961;-71
2023/05/19 03:21:07;;;;;;;;;;;;;;;9.33;81.35;96866.13;4984088;28;19960;-71
2023/05/19 03:23:33;;;;;;;;;;;;;;;9.34;80.82;96868.56;4984656;28;19951;-71
2023/05/19 03:26:00;;;;;;;;;;;;;;;9.34;80.97;96867.72;5051166;28;19963;-72
2023/05/19 03:28:26;;;;;;;;;;;;;;;9.32;82.30;96865.31;4984478;28;19956;-73
2023/05/19 03:30:52;;;;;;;;;;;;;;;9.30;81.45;96862.09;4984686;28;19970;-71
2023/05/19 03:33:18;;;;;;;;;;;;;;;9.29;81.72;96872.75;4984440;28;20033;-72
2023/05/19 03:35:44;;;;;;;;;;;;;;;9.28;81.65;96873.75;4984701;28;20182;-71
2023/05/19 03:38:09;;;;;;;;;;;;;;;9.28;81.45;96869.34;4983832;28;20176;-71
2023/05/19 03:40:35;;;;;;;;;;;;;;;9.27;82.35;96878.19;4984516;28;20259;-71
2023/05/19 03:43:01;;;;;;;;;;;;;;;9.27;82.37;96872.97;4984236;28;19962;-71
2023/05/19 03:45:27;;;;;;;;;;;;;;;9.27;83.29;96882.63;4984057;28;19955;-71
2023/05/19 03:47:53;;;;;;;;;;;;;;;9.28;82.79;96879.00;4984110;28;20119;-71
2023/05/19 03:50:20;;;;;;;;;;;;;;;9.26;82.77;96881.81;4984052;28;19962;-72
2023/05/19 03:52:46;;;;;;;;;;;;;;;9.27;82.40;96872.16;4984070;28;19958;-72
2023/05/19 03:55:13;;;;;;;;;;;;;;;9.27;83.51;96882.63;4984088;28;19966;-72
2023/05/19 03:57:40;;;;;;;;;;;;;;;9.26;83.24;96883.63;4984032;28;19953;-72
2023/05/19 04:00:06;;;;;;;;;;;;;;;9.25;82.85;96882.81;4983590;28;19953;-72
2023/05/19 04:02:32;;;;;;;;;;;;;;;9.24;84.42;96885.63;4983666;28;19956;-72
2023/05/19 04:04:58;;;;;;;;;;;;;;;9.22;82.87;96877.16;4983637;28;20190;-72
2023/05/19 04:07:24;;;;;;;;;;;;;;;9.22;84.65;96885.00;4983398;28;19961;-73
2023/05/19 04:09:50;;;;;;;;;;;;;;;9.21;84.20;96883.41;4983598;28;19964;-71
2023/05/19 04:12:16;;;;;;;;;;;;;;;9.21;84.97;96878.19;4983649;28;19959;-71
2023/05/19 04:14:42;;;;;;;;;;;;;;;9.22;82.75;96877.16;4983655;28;20029;-71
2023/05/19 04:17:08;;;;;;;;;;;;;;;9.21;83.56;96881.59;4983754;28;19959;-72
2023/05/19 04:19:33;;;;;;;;;;;;;;;9.23;84.12;96887.44;4983869;28;20028;-71
2023/05/19 04:21:59;;;;;;;;;;;;;;;9.23;84.06;96879.59;4983667;28;19949;-71
2023/05/19 04:24:25;;;;;;;;;;;;;;;9.26;83.30;96875.75;4983729;28;19954;-73
2023/05/19 04:26:52;;;;;;;;;;;;;;;9.25;84.24;96882.81;4983629;28;19958;-71
2023/05/19 04:29:17;;;;;;;;;;;;;;;9.27;83.74;96870.34;4983627;28;19964;-71
2023/05/19 04:31:43;;;;;;;;;;;;;;;9.30;83.74;96876.97;4983785;28;20259;-72
2023/05/19 04:34:09;;;;;;;;;;;;;;;9.33;83.09;96874.78;4983206;28;19959;-71
2023/05/19 04:36:36;;;;;;;;;;;;;;;9.34;83.29;96870.34;4982966;28;19959;-71
2023/05/19 04:39:06;;;;;;;;;;;;;;;9.35;84.84;96882.44;4983200;28;19952;-71
2023/05/19 04:41:32;;;;;;;;;;;;;;;9.39;82.86;96877.63;4983436;28;19962;-71
2023/05/19 04:43:58;;;;;;;;;;;;;;;9.40;83.67;96881.84;4983197;28;20264;-72
2023/05/19 04:46:25;;;;;;;;;;;;;;;9.42;83.24;96877.22;4983404;28;19957;-73
2023/05/19 04:48:52;;;;;;;;;;;;;;;9.42;84.11;96879.81;4983398;28;19964;-72
2023/05/19 04:51:18;;;;;;;;;;;;;;;9.44;84.16;96891.72;4983156;28;19965;-72
2023/05/19 04:53:44;;;;;;;;;;;;;;;9.47;83.77;96885.25;5049929;28;20176;-72
2023/05/19 04:56:14;;;;;;;;;;;;;;;9.51;84.00;96884.69;4982593;28;19961;-73
2023/05/19 04:58:40;;;;;;;;;;;;;;;9.61;84.44;96893.94;4982801;28;20238;-72
2023/05/19 05:01:08;;;;;;;;;;;;;;;9.66;85.06;96884.50;4983198;28;19957;-73
2023/05/19 05:03:34;;;;;;;;;;;;;;;9.73;83.95;96874.00;4982765;28;20047;-68
2023/05/19 05:06:00;;;;;;;;;;;;;;;9.81;83.33;96867.78;4982793;28;20018;-68
2023/05/19 05:08:26;;;;;;;;;;;;;;;9.88;82.37;96874.59;4982760;28;19982;-69
2023/05/19 05:10:52;;;;;;;;;;;;;;;9.99;82.20;96869.75;4982691;28;19966;-69
2023/05/19 05:13:20;;;;;;;;;;;;;;;10.06;81.56;96871.38;4982809;28;20018;-68
2023/05/19 05:15:46;;;;;;;;;;;;;;;10.18;81.37;96868.91;4982831;28;19962;-69
2023/05/19 05:18:12;;;;;;;;;;;;;;;10.31;80.75;96860.25;4982798;28;19963;-69
2023/05/19 05:20:38;;;;;;;;;;;;;;;10.41;80.60;96862.44;4982941;28;19961;-73
2023/05/19 05:23:04;;;;;;;;;;;;;;;10.45;80.44;96851.34;4982908;28;19955;-73
2023/05/19 05:25:30;;;;;;;;;;;;;;;10.46;78.99;96852.16;4982267;28;19948;-73
2023/05/19 05:27:57;;;;;;;;;;;;;;;10.46;80.17;96854.78;4983061;28;20120;-73
2023/05/19 05:30:23;;;;;;;;;;;;;;;10.47;80.00;96857.19;4982840;28;19964;-73
2023/05/19 05:32:49;;;;;;;;;;;;;;;10.50;81.65;96864.66;4982405;28;19961;-73
2023/05/19 05:35:15;;;;;;;;;;;;;;;10.51;79.64;96862.81;4982355;28;19949;-73
2023/05/19 05:37:41;;;;;;;;;;;;;;;10.49;80.10;96862.22;4982712;28;19999;-72
2023/05/19 05:40:07;;;;;;;;;;;;;;;10.48;80.64;96869.28;5049446;28;20238;-72
2023/05/19 05:42:33;;;;;;;;;;;;;;;10.51;80.71;96868.88;4982570;28;20020;-72
2023/05/19 05:44:58;;;;;;;;;;;;;;;10.57;81.44;96880.34;4982520;28;19952;-72
2023/05/19 05:47:24;;;;;;;;;;;;;;;10.57;80.52;96873.28;4982501;28;19955;-72
2023/05/19 05:49:50;;;;;;;;;;;;;;;10.55;80.83;96875.31;4982457;28;20247;-72
2023/05/19 05:52:17;;;;;;;;;;;;;;;10.55;81.93;96879.75;4982587;28;19966;-71
2023/05/19 05:54:43;;;;;;;;;;;;;;;10.57;81.14;96878.53;4982499;28;19961;-72
2023/05/19 05:57:09;;;;;;;;;;;;;;;10.60;81.86;96884.38;4982477;28;19964;-74
2023/05/19 05:59:35;;;;;;;;;;;;;;;10.55;80.79;96879.75;4982709;28;19964;-72
2023/05/19 06:02:01;;;;;;;;;;;;;;;10.52;80.97;96880.16;4982081;28;19958;-72
2023/05/19 06:04:27;;;;;;;;;;;;;;;10.53;80.64;96876.53;4982125;28;20027;-72
2023/05/19 06:06:55;;;;;;;;;;;;;;;10.61;81.84;96884.19;4982997;28;19962;-72
2023/05/19 06:09:21;;;;;;;;;;;;;;;10.76;82.07;96879.47;4985499;28;19955;-73
2023/05/19 06:11:47;;;;;;;;;;;;;;;10.99;81.02;96870.28;4985620;28;20123;-72
2023/05/19 06:14:13;;;;;;;;;;;;;;;11.37;80.47;96862.38;4985505;28;20024;-72
2023/05/19 06:16:39;;;;;;;;;;;;;;;11.93;79.31;96862.63;4985697;28;19967;-72
2023/05/19 06:19:05;;;;;;;;;;;;;;;12.48;76.64;96844.25;4985577;28;19960;-72
2023/05/19 06:21:30;;;;;;;;;;;;;;;12.92;75.16;96834.41;4985551;28;19952;-72
2023/05/19 06:23:56;;;;;;;;;;;;;;;13.19;72.78;96828.78;4985417;28;20143;-73
2023/05/19 06:26:22;;;;;;;;;;;;;;;13.39;72.63;96829.28;4985850;28;20225;-72
2023/05/19 06:28:48;;;;;;;;;;;;;;;13.51;71.19;96824.06;4985474;28;19957;-73
2023/05/19 06:31:14;;;;;;;;;;;;;;;13.55;71.04;96817.31;4984925;28;20281;-72
2023/05/19 06:33:39;;;;;;;;;;;;;;;13.66;72.04;96826.25;4985097;28;19984;-73
2023/05/19 06:36:07;;;;;;;;;;;;;;;13.63;70.49;96820.63;4985416;28;19963;-73
2023/05/19 06:38:33;;;;;;;;;;;;;;;13.65;71.24;96827.28;4985183;28;20116;-72
2023/05/19 06:40:58;;;;;;;;;;;;;;;13.69;71.59;96832.91;5052166;28;19980;-72
2023/05/19 06:43:24;;;;;;;;;;;;;;;13.78;70.49;96823.63;4985030;28;20008;-71
2023/05/19 06:45:50;;;;;;;;;;;;;;;13.86;69.75;96819.84;4985101;28;20131;-72
2023/05/19 06:48:16;;;;;;;;;;;;;;;13.93;69.44;96829.25;4985063;28;19962;-71
2023/05/19 06:50:42;;;;;;;;;;;;;;;14.04;68.17;96818.94;4985303;28;19974;-72
2023/05/19 06:53:08;;;;;;;;;;;;;;;14.01;69.13;96823.63;4985080;28;20004;-72
2023/05/19 06:55:34;;;;;;;;;;;;;;;14.01;67.29;96821.00;4984545;28;19946;-73
2023/05/19 06:58:00;;;;;;;;;;;;;;;14.09;68.92;96825.13;5052298;28;20211;-73
2023/05/19 07:00:25;;;;;;;;;;;;;;;14.16;68.66;96827.63;4984557;28;20021;-74
2023/05/19 07:02:51;;;;;;;;;;;;;;;14.08;64.58;96814.78;4984548;28;19962;-73
2023/05/19 07:05:17;;;;;;;;;;;;;;;14.09;65.64;96824.31;4984700;28;19959;-72
2023/05/19 07:07:43;;;;;;;;;;;;;;;14.10;67.32;96836.47;4984586;28;19965;-73
2023/05/19 07:10:09;;;;;;;;;;;;;;;14.06;68.22;96835.31;4984551;28;19964;-72
2023/05/19 07:12:35;;;;;;;;;;;;;;;13.90;65.59;96819.16;4984608;28;19968;-67
2023/05/19 07:15:01;;;;;;;;;;;;;;;13.71;66.66;96823.75;4984764;28;19951;-67
2023/05/19 07:17:27;;;;;;;;;;;;;;;13.73;68.13;96828.78;4984121;28;19955;-67
2023/05/19 07:19:53;;;;;;;;;;;;;;;13.69;65.52;96827.63;4984197;28;19958;-67
2023/05/19 07:22:19;;;;;;;;;;;;;;;13.62;68.09;96833.00;4984697;28;19960;-67
2023/05/19 07:24:44;;;;;;;;;;;;;;;13.57;69.01;96833.69;4984616;28;19960;-67
2023/05/19 07:27:10;;;;;;;;;;;;;;;13.57;66.96;96817.88;4984422;28;20124;-68
2023/05/19 07:29:36;;;;;;;;;;;;;;;13.54;69.09;96828.88;4984227;28;19953;-73
2023/05/19 07:32:02;;;;;;;;;;;;;;;13.53;69.98;96843.06;4984634;28;19979;-72
2023/05/19 07:34:28;;;;;;;;;;;;;;;13.51;69.91;96834.59;5051106;28;19952;-73
2023/05/19 07:36:54;;;;;;;;;;;;;;;13.46;68.67;96831.03;4984728;28;20207;-73
2023/05/19 07:39:20;;;;;;;;;;;;;;;13.42;70.03;96835.13;4984136;28;19957;-72
2023/05/19 07:41:51;;;;;;;;;;;;;;;13.43;67.12;96820.97;4984128;28;19963;-73
2023/05/19 07:44:17;;;;;;;;;;;;;;;13.30;70.14;96835.94;4984408;28;19957;-73
2023/05/19 07:46:43;;;;;;;;;;;;;;;13.25;69.72;96837.59;4984386;28;19955;-73
2023/05/19 07:49:09;;;;;;;;;;;;;;;13.16;71.30;96848.44;4983913;28;20152;-72
2023/05/19 07:51:35;;;;;;;;;;;;;;;13.09;71.10;96839.84;4984230;28;19969;-72
2023/05/19 07:54:01;;;;;;;;;;;;;;;12.99;70.41;96840.38;4984190;28;19963;-73
2023/05/19 07:56:26;;;;;;;;;;;;;;;12.85;70.48;96831.06;4983703;28;19976;-72
2023/05/19 07:58:52;;;;;;;;;;;;;;;12.77;70.71;96831.38;4984393;28;20296;-73
2023/05/19 08:01:18;;;;;;;;;;;;;;;12.69;70.67;96842.19;4983527;28;19970;-73
2023/05/19 08:03:44;;;;;;;;;;;;;;;12.61;71.38;96832.75;4983751;28;19959;-73
2023/05/19 08:06:10;;;;;;;;;;;;;;;12.55;70.36;96833.66;4983609;28;19961;-73
2023/05/19 08:08:36;;;;;;;;;;;;;;;12.49;71.89;96834.53;4983256;28;19998;-72
2023/05/19 08:11:03;;;;;;;;;;;;;;;12.52;72.80;96834.91;4983420;28;20003;-73
2023/05/19 08:13:29;;;;;;;;;;;;;;;12.59;73.82;96840.06;4983720;28;19955;-72
2023/05/19 08:15:58;;;;;;;;;;;;;;;12.73;73.22;96827.56;4983979;28;19963;-72
2023/05/19 08:18:27;;;;;;;;;;;;;;;12.79;73.15;96829.31;4983712;28;19956;-72
2023/05/19 08:20:53;;;;;;;;;;;;;;;12.86;72.82;96824.75;4983761;28;20133;-73
2023/05/19 08:23:19;;;;;;;;;;;;;;;12.93;72.98;96825.47;4983147;28;19945;-73
2023/05/19 08:25:45;;;;;;;;;;;;;;;13.08;72.69;96821.63;4983816;28;20013;-68
2023/05/19 08:28:10;;;;;;;;;;;;;;;13.12;69.31;96802.53;4983492;28;19956;-67
2023/05/19 08:30:36;;;;;;;;;;;;;;;13.19;68.67;96805.06;4982362;28;20029;-68
2023/05/19 08:33:02;;;;;;;;;;;;;;;13.47;70.01;96809.72;4983289;28;19964;-68
2023/05/19 08:35:28;;;;;;;;;;;;;;;13.75;68.38;96803.81;4983239;28;19991;-67
2023/05/19 08:37:54;;;;;;;;;;;;;;;14.00;66.09;96792.22;4982989;28;19952;-67
2023/05/19 08:40:21;;;;;;;;;;;;;;;14.05;65.70;96778.31;4983301;28;19957;-67
2023/05/19 08:42:47;;;;;;;;;;;;;;;14.07;65.64;96787.63;4983393;28;19956;-72
2023/05/19 08:45:13;;;;;;;;;;;;;;;14.04;62.90;96780.16;4983389;28;20050;-72
2023/05/19 08:47:40;;;;;;;;;;;;;;;13.97;65.59;96787.41;4983420;28;19965;-72
2023/05/19 08:50:08;;;;;;;;;;;;;;;13.95;64.80;96781.56;4983360;28;19956;-71
2023/05/19 08:52:34;;;;;;;;;;;;;;;13.95;64.34;96789.47;4982666;28;20139;-72
2023/05/19 08:55:06;;;;;;;;;;;;;;;13.88;67.01;96788.78;4982870;28;19992;-72
2023/05/19 08:57:32;;;;;;;;;;;;;;;13.90;67.84;96789.34;4982879;28;20151;-72
2023/05/19 08:59:58;;;;;;;;;;;;;;;13.86;64.96;96794.28;4982958;28;19957;-72
2023/05/19 09:02:24;;;;;;;;;;;;;;;13.85;65.00;96786.63;4982898;28;20175;-72
2023/05/19 09:04:51;;;;;;;;;;;;;;;13.76;66.21;96784.31;4982966;28;19961;-72
2023/05/19 09:07:17;;;;;;;;;;;;;;;13.83;67.52;96792.09;4982586;28;19960;-72
2023/05/19 09:09:43;;;;;;;;;;;;;;;14.00;68.07;96795.63;4982952;28;19956;-72
2023/05/19 09:12:10;;;;;;;;;;;;;;;14.06;63.57;96777.31;4983051;28;20281;-72
2023/05/19 09:14:36;;;;;;;;;;;;;;;13.96;64.58;96781.34;4982978;28;19956;-72
2023/05/19 09:17:03;;;;;;;;;;;;;;;13.89;63.28;96782.47;4983025;28;19964;-72
2023/05/19 09:19:29;;;;;;;;;;;;;;;13.87;65.82;96789.81;4983202;28;19962;-73
2023/05/19 09:22:05;;;;;;;;;;;;;;;13.84;65.78;96787.63;4982969;28;19948;-72
2023/05/19 09:24:32;;;;;;;;;;;;;;;13.78;66.24;96795.44;4982872;28;19959;-72
2023/05/19 09:26:58;;;;;;;;;;;;;;;13.69;65.05;96782.81;4982973;28;19950;-72
2023/05/19 09:29:24;;;;;;;;;;;;;;;13.63;64.38;96783.72;4982512;28;19956;-72
2023/05/19 09:31:54;;;;;;;;;;;;;;;13.58;65.06;96779.16;4982494;28;20265;-72
2023/05/19 09:34:23;;;;;;;;;;;;;;;13.58;65.73;96784.41;4982565;28;19959;-72
2023/05/19 09:36:49;;;;;;;;;;;;;;;13.55;66.53;96788.31;4982879;28;20204;-68
2023/05/19 09:39:15;;;;;;;;;;;;;;;13.51;66.22;96787.16;4982897;28;19962;-72
2023/05/19 09:41:41;;;;;;;;;;;;;;;13.57;66.62;96782.84;4984956;28;19959;-72
2023/05/19 09:44:11;;;;;;;;;;;;;;;13.60;66.52;96783.16;4986181;28;19969;-72
2023/05/19 09:46:37;;;;;;;;;;;;;;;13.63;66.64;96781.09;4985910;28;19964;-71
2023/05/19 09:49:09;;;;;;;;;;;;;;;13.65;67.24;96785.13;4986333;28;20253;-72
2023/05/19 09:51:36;;;;;;;;;;;;;;;13.67;65.86;96779.59;4985275;28;20260;-72
2023/05/19 09:54:03;;;;;;;;;;;;;;;13.72;65.93;96787.66;4985681;28;19957;-72
2023/05/19 09:56:35;;;;;;;;;;;;;;;13.68;65.86;96778.59;4985698;28;19961;-72
2023/05/19 09:59:02;;;;;;;;;;;;;;;13.71;65.51;96775.47;4985740;28;20259;-67
2023/05/19 10:01:30;;;;;;;;;;;;;;;13.73;65.08;96778.69;4985901;28;19958;-67
2023/05/19 10:03:56;;;;;;;;;;;;;;;13.61;63.58;96765.53;4985315;28;19959;-67
2023/05/19 10:06:23;;;;;;;;;;;;;;;13.55;64.62;96774.34;4985765;28;19957;-67
2023/05/19 10:08:50;;;;;;;;;;;;;;;13.55;66.26;96782.25;4985808;28;20047;-67
2023/05/19 10:11:16;;;;;;;;;;;;;;;13.62;67.50;96790.03;4985598;28;19969;-68
2023/05/19 10:13:44;;;;;;;;;;;;;;;13.64;65.63;96783.50;4985282;28;20177;-72
2023/05/19 10:16:10;;;;;;;;;;;;;;;13.58;65.31;96776.50;4985244;28;20139;-67
2023/05/19 10:18:36;;;;;;;;;;;;;;;13.57;67.13;96783.63;4985103;28;19966;-68
2023/05/19 10:21:03;;;;;;;;;;;;;;;13.57;66.84;96785.47;4985260;28;19955;-68
2023/05/19 10:23:29;;;;;;;;;;;;;;;13.57;66.83;96788.91;4985311;28;19956;-68
2023/05/19 10:25:57;;;;;;;;;;;;;;;13.56;66.52;96768.03;4985314;28;19957;-68
2023/05/19 10:28:26;;;;;;;;;;;;;;;13.52;65.94;96766.88;5052349;28;19952;-68
2023/05/19 10:30:55;;;;;;;;;;;;;;;13.54;67.07;96775.38;4985257;28;19959;-68
2023/05/19 10:33:27;;;;;;;;;;;;;;;13.52;64.06;96765.06;4985487;28;19955;-72
2023/05/19 10:36:14;;;;;;;;;;;;;;;13.53;65.75;96777.22;4985542;28;19958;-73
2023/05/19 10:38:47;;;;;;;;;;;;;;;13.54;65.44;96778.00;4985358;28;19953;-73
2023/05/19 10:41:13;;;;;;;;;;;;;;;13.51;66.25;96784.53;4985389;28;19965;-72
2023/05/19 10:43:38;;;;;;;;;;;;;;;13.46;65.53;96778.34;4985217;28;19961;-73
2023/05/19 10:46:05;;;;;;;;;;;;;;;13.45;66.87;96785.44;4984979;28;20141;-72
2023/05/19 10:48:37;;;;;;;;;;;;;;;13.34;65.38;96776.50;4985035;28;19965;-72
2023/05/19 10:51:03;;;;;;;;;;;;;;;13.23;65.93;96773.81;4984981;28;19960;-72
2023/05/19 10:53:30;;;;;;;;;;;;;;;13.22;67.90;96791.44;4984334;28;20145;-72
2023/05/19 10:55:57;;;;;;;;;;;;;;;13.29;68.50;96801.91;4985083;28;19958;-71
2023/05/19 10:58:47;;;;;;;;;;;;;;;13.34;67.69;96788.88;4985596;28;19963;-72
2023/05/19 11:01:23;;;;;;;;;;;;;;;13.38;66.40;96787.41;4985082;28;19962;-71
2023/05/19 11:03:53;;;;;;;;;;;;;;;13.37;66.19;96783.13;4985008;28;19954;-72
2023/05/19 11:06:26;;;;;;;;;;;;;;;13.27;66.72;96786.31;4985030;28;19954;-72
2023/05/19 11:09:00;;;;;;;;;;;;;;;13.22;65.83;96773.00;4984735;28;19959;-72
2023/05/19 11:11:42;;;;;;;;;;;;;;;13.19;67.54;96786.66;4984644;28;19959;-67
2023/05/19 11:14:10;;;;;;;;;;;;;;;13.22;68.30;96788.81;5051683;28;19956;-67
2023/05/19 11:16:35;;;;;;;;;;;;;;;13.22;68.72;96791.44;4984213;28;20239;-68
2023/05/19 11:19:01;;;;;;;;;;;;;;;13.14;66.10;96786.50;4984722;28;19959;-67
2023/05/19 11:21:47;;;;;;;;;;;;;;;12.98;66.06;96790.59;4984603;28;19953;-67
2023/05/19 11:24:31;;;;;;;;;;;;;;;12.88;67.19;96788.50;4984375;28;19957;-67
2023/05/19 11:26:57;;;;;;;;;;;;;;;12.88;67.17;96783.22;4984426;28;19954;-72
2023/05/19 11:29:23;;;;;;;;;;;;;;;12.91;68.32;96789.88;4984460;28;19959;-72
2023/05/19 11:31:50;;;;;;;;;;;;;;;12.95;66.73;96789.19;4984551;28;20034;-71
2023/05/19 11:34:17;;;;;;;;;;;;;;;12.98;67.09;96787.97;5051304;28;19967;-72
2023/05/19 11:36:44;;;;;;;;;;;;;;;12.99;66.28;96773.75;4984517;28;19956;-71
2023/05/19 11:39:10;;;;;;;;;;;;;;;13.10;68.02;96783.53;4984220;28;19948;-72
2023/05/19 11:41:39;;;;;;;;;;;;;;;13.18;66.33;96775.28;4983859;28;20155;-71
2023/05/19 11:44:08;;;;;;;;;;;;;;;13.25;67.73;96777.84;4984622;28;19963;-72
2023/05/19 11:46:34;;;;;;;;;;;;;;;13.34;67.95;96783.59;4984183;28;19989;-72
2023/05/19 11:49:01;;;;;;;;;;;;;;;13.38;67.04;96777.66;5050830;28;20250;-72
2023/05/19 11:51:27;;;;;;;;;;;;;;;13.44;67.41;96780.41;4983904;28;20267;-72
2023/05/19 11:53:53;;;;;;;;;;;;;;;13.46;65.88;96775.69;4984264;28;19957;-72
2023/05/19 11:56:20;;;;;;;;;;;;;;;13.42;65.74;96774.56;4984084;28;19958;-72
2023/05/19 11:58:46;;;;;;;;;;;;;;;13.42;66.17;96777.19;4984254;28;19953;-72
2023/05/19 12:01:12;;;;;;;;;;;;;;;13.38;65.39;96761.84;4984054;28;19955;-72
2023/05/19 12:03:38;;;;;;;;;;;;;;;13.41;67.06;96773.75;4984070;28;19965;-73
2023/05/19 12:06:05;;;;;;;;;;;;;;;13.44;65.88;96773.31;4984040;28;19960;-68
2023/05/19 12:08:31;;;;;;;;;;;;;;;13.40;65.46;96770.31;4983813;28;19968;-72
2023/05/19 12:10:57;;;;;;;;;;;;;;;13.36;65.02;96761.28;4983882;28;19953;-72
2023/05/19 12:13:23;;;;;;;;;;;;;;;13.33;66.42;96776.72;4983456;28;19964;-72
2023/05/19 12:15:50;;;;;;;;;;;;;;;13.34;67.32;96781.75;4983977;28;20137;-72
2023/05/19 12:18:16;;;;;;;;;;;;;;;13.32;65.91;96786.47;4983464;28;19959;-73
2023/05/19 12:20:42;;;;;;;;;;;;;;;13.32;66.52;96775.94;4983864;28;19951;-72
2023/05/19 12:23:08;;;;;;;;;;;;;;;13.34;65.72;96779.13;4983607;28;19966;-73
2023/05/19 12:25:34;;;;;;;;;;;;;;;13.37;67.28;96783.13;4983611;28;19964;-67
2023/05/19 12:28:03;;;;;;;;;;;;;;;13.37;65.66;96776.03;4983740;28;19977;-67
2023/05/19 12:30:30;;;;;;;;;;;;;;;13.42;66.80;96775.38;4983634;28;19957;-67
2023/05/19 12:32:58;;;;;;;;;;;;;;;13.52;68.74;96788.78;5049913;28;20156;-67
2023/05/19 12:35:25;;;;;;;;;;;;;;;13.62;68.36;96788.19;5049787;28;19946;-68
2023/05/19 12:37:51;;;;;;;;;;;;;;;13.71;69.06;96788.66;4983572;28;19959;-67
2023/05/19 12:40:16;;;;;;;;;;;;;;;13.77;68.26;96795.66;4983318;28;19959;-68
2023/05/19 12:42:47;;;;;;;;;;;;;;;13.74;68.47;96780.31;5049587;28;20184;-72
2023/05/19 12:45:13;;;;;;;;;;;;;;;13.72;68.29;96787.66;4983283;28;20247;-72
2023/05/19 12:47:39;;;;;;;;;;;;;;;13.75;69.04;96798.53;4983138;28;19962;-72
2023/05/19 12:50:06;;;;;;;;;;;;;;;13.72;67.52;96798.97;4983215;28;19959;-71